Las Marias, Puerto Rico
Current Conditions -  °F | °C
As of 6:50 AM on Sunday 21 Dec 2014 (Local Time) from TJBQ Reporting Station
Clear Clear  
Wind Chill: 72°   Ceiling: Unl
Heat Index: 72°   Visibility: 10mi
Dew Point: 66°   Wind: 9mph
Humidity: 83%   Direction: 100°E
Pressure: 30.04"   Gusts: NA
Location:  18.25°N, 66.99°W
Report Text: TJBQ 211050Z 10008KT 10SM SKC 22/19 A3004 RMK RWY 8 ATIS V
Loading
Personal Weather Stations






























Interactive Weather Map New forecast layout! Learn more

10-Day Weather Forecast

Advertisements
Track Severe Weather on mobile